Skip Navigation LinksHome page > Weather > Current weather Skip Navigation Links

Current Weather

Rochelle Muni Airport-Koritz Field, Rochelle, Ill.

For information only: do not use for flight planning or navigation.
Latest weather
Observation time Saturday, October 19, 2019 5:15 AM CDT
Local time Saturday, October 19, 2019 5:32 AM CDT
Flight conditions Visual Meteorological Conditions
Winds
Wind direction South-Southeast (160°)
Wind speed 7 mph
Visibility 10 mi.
Sky condition
Ceiling unlimited
Sky clear
Temperature 45°F
Dewpoint 41°F
Altimeter 29.84 in.Hg
Derived measurements
Relative humidity 86%
Wind chill 41°F
Density altitude 63 ft.
Remarks
Fully automated report.
Automated weather observing station with precipitation discriminator.
METAR KRPJ 191015Z AUTO 16006KT 10SM CLR 07/05 A2984 RMK AO2 T00720050

Settings

Location code

InnerDrive.Weather 4.0.6770.0 Release CLR 4.0.30319.42000
Copyright ©2018 Inner Drive Technology. All rights reserved. Portions Copyright ©1986-2018 David Braverman.

Find weather

Site navigation


Skip Navigation Links

Place info

Page info

PayPal - The safer, easier way to pay online!

Return home.

Copyright ©2019 Inner Drive Technology. Purveyors of fine, hand-crafted computer software. Page printed 2019-10-19T10:32:52 UTC.